Time;durP1;ratioP1;P1;durP2;ratioP2;P2;SDS_P1;SDS_P2;PMS_P1;PMS_P2;Temp;Humidity;BMP_temperature;BMP_pressure;BME280_temperature;BME280_humidity;BME280_pressure;Samples;Min_cycle;Max_cycle;Signal;HPM_P1;HPM_P2
2021/07/21 00:01:22;;;;;;;15.23;9.30;;;;;;;;;;4984149;28;20303;-77
2021/07/21 00:03:47;;;;;;;13.63;9.45;;;;;;;;;;4994473;28;20195;-76
2021/07/21 00:06:13;;;;;;;10.30;8.77;;;;;;;;;;4969352;28;20871;-77
2021/07/21 00:08:38;;;;;;;10.55;8.75;;;;;;;;;;4987338;28;20324;-77
2021/07/21 00:13:48;;;;;;;11.25;8.63;;;;;;;;;;4990823;28;20287;-77
2021/07/21 00:16:20;;;;;;;13.00;9.18;;;;;;;;;;4992534;28;20211;-77
2021/07/21 00:18:49;;;;;;;14.45;9.52;;;;;;;;;;4993232;28;20184;-77
2021/07/21 00:21:15;;;;;;;15.82;8.35;;;;;;;;;;4988917;28;20188;-75
2021/07/21 00:23:41;;;;;;;10.65;8.55;;;;;;;;;;4990086;28;20219;-77
2021/07/21 00:26:06;;;;;;;11.93;8.60;;;;;;;;;;4991222;28;20677;-77
2021/07/21 00:28:34;;;;;;;9.82;8.13;;;;;;;;;;4981322;28;20222;-77
2021/07/21 00:31:00;;;;;;;12.32;8.13;;;;;;;;;;4990788;28;20176;-77
2021/07/21 00:33:25;;;;;;;11.85;8.85;;;;;;;;;;4992005;28;20210;-77
2021/07/21 00:35:50;;;;;;;12.82;9.35;;;;;;;;;;4991222;28;20184;-77
2021/07/21 00:38:15;;;;;;;11.27;8.13;;;;;;;;;;4980123;28;20185;-77
2021/07/21 00:40:41;;;;;;;14.00;9.48;;;;;;;;;;4992066;28;20798;-77
2021/07/21 00:43:06;;;;;;;9.98;7.80;;;;;;;;;;4964951;28;20239;-77
2021/07/21 00:45:32;;;;;;;11.60;9.05;;;;;;;;;;4986020;28;20289;-77
2021/07/21 00:47:57;;;;;;;14.18;8.25;;;;;;;;;;4979798;28;20184;-77
2021/07/21 00:50:23;;;;;;;13.52;8.98;;;;;;;;;;4991963;28;20576;-77
2021/07/21 00:52:49;;;;;;;10.93;8.73;;;;;;;;;;4968948;28;20204;-77
2021/07/21 00:55:15;;;;;;;13.57;8.63;;;;;;;;;;4986522;28;20187;-77
2021/07/21 00:57:40;;;;;;;14.98;8.85;;;;;;;;;;4982258;28;20578;-77
2021/07/21 01:00:07;;;;;;;11.55;8.85;;;;;;;;;;4986965;28;20242;-77
2021/07/21 01:02:32;;;;;;;11.80;8.85;;;;;;;;;;4967367;28;20295;-76
2021/07/21 01:04:58;;;;;;;13.35;9.32;;;;;;;;;;4992410;28;20756;-77
2021/07/21 01:07:23;;;;;;;12.80;9.13;;;;;;;;;;4967869;28;20672;-77
2021/07/21 01:09:48;;;;;;;13.48;9.32;;;;;;;;;;4991453;28;20183;-77
2021/07/21 01:12:17;;;;;;;11.07;8.05;;;;;;;;;;4989779;28;20235;-77
2021/07/21 01:14:42;;;;;;;11.63;8.80;;;;;;;;;;4984334;28;20191;-77
2021/07/21 01:17:11;;;;;;;10.68;8.35;;;;;;;;;;4982486;28;20194;-77
2021/07/21 01:19:59;;;;;;;13.77;9.27;;;;;;;;;;4989841;28;20186;-77
2021/07/21 01:22:29;;;;;;;12.32;9.18;;;;;;;;;;4984793;23;20191;-75
2021/07/21 01:25:11;;;;;;;12.73;8.88;;;;;;;;;;4989462;28;20224;-75
2021/07/21 01:27:37;;;;;;;10.10;8.02;;;;;;;;;;4978072;28;20669;-75
2021/07/21 01:30:13;;;;;;;14.43;9.10;;;;;;;;;;4973748;28;20220;-75
2021/07/21 01:32:39;;;;;;;12.98;9.05;;;;;;;;;;4979844;28;20200;-74
2021/07/21 01:35:10;;;;;;;12.82;9.13;;;;;;;;;;4971690;28;20669;-74
2021/07/21 01:37:37;;;;;;;12.18;8.73;;;;;;;;;;4965849;28;20945;-75
2021/07/21 01:40:04;;;;;;;18.88;11.25;;;;;;;;;;4968897;28;20267;-74
2021/07/21 01:42:30;;;;;;;11.23;7.70;;;;;;;;;;4949863;28;20298;-77
2021/07/21 01:44:57;;;;;;;12.38;9.35;;;;;;;;;;4955469;28;20311;-75
2021/07/21 01:47:23;;;;;;;10.88;9.00;;;;;;;;;;4972634;28;20184;-75
2021/07/21 01:49:50;;;;;;;17.35;9.60;;;;;;;;;;4974062;28;20191;-75
2021/07/21 01:52:16;;;;;;;14.43;9.77;;;;;;;;;;4972802;28;20188;-75
2021/07/21 01:54:43;;;;;;;12.85;9.38;;;;;;;;;;4971264;28;20195;-75
2021/07/21 01:57:09;;;;;;;11.13;8.73;;;;;;;;;;4962695;28;20169;-75
2021/07/21 01:59:34;;;;;;;10.82;8.45;;;;;;;;;;4970121;28;20227;-75
2021/07/21 02:02:00;;;;;;;11.27;8.68;;;;;;;;;;4967675;28;20180;-75
2021/07/21 02:04:25;;;;;;;13.48;9.23;;;;;;;;;;4966907;28;20202;-76
2021/07/21 02:06:51;;;;;;;11.98;8.65;;;;;;;;;;4951784;28;20255;-75
2021/07/21 02:09:16;;;;;;;12.77;9.38;;;;;;;;;;4950196;28;20184;-75
2021/07/21 02:11:42;;;;;;;11.30;8.45;;;;;;;;;;4957172;28;20168;-75
2021/07/21 02:14:07;;;;;;;13.38;9.27;;;;;;;;;;4968573;28;20200;-75
2021/07/21 02:16:35;;;;;;;12.95;9.45;;;;;;;;;;4970513;28;20712;-74
2021/07/21 02:19:01;;;;;;;18.67;9.80;;;;;;;;;;4969700;28;20181;-75
2021/07/21 02:21:27;;;;;;;16.17;9.20;;;;;;;;;;4975744;28;20177;-75
2021/07/21 02:23:53;;;;;;;13.15;8.95;;;;;;;;;;4960866;28;20220;-76
2021/07/21 02:26:18;;;;;;;14.27;9.10;;;;;;;;;;4973082;28;20917;-75
2021/07/21 02:28:44;;;;;;;13.07;9.90;;;;;;;;;;4969305;28;20255;-75
2021/07/21 02:31:13;;;;;;;11.70;9.48;;;;;;;;;;4963708;28;20188;-75
2021/07/21 02:33:44;;;;;;;13.07;9.10;;;;;;;;;;4969868;28;20228;-75
2021/07/21 02:36:09;;;;;;;12.13;8.95;;;;;;;;;;4967735;28;20231;-75
2021/07/21 02:38:35;;;;;;;11.63;8.45;;;;;;;;;;4969737;28;20226;-75
2021/07/21 02:41:00;;;;;;;12.93;9.02;;;;;;;;;;4969724;28;20192;-75
2021/07/21 02:43:25;;;;;;;11.00;8.35;;;;;;;;;;4970908;28;20227;-75
2021/07/21 02:45:51;;;;;;;14.07;10.05;;;;;;;;;;4964256;28;20197;-75
2021/07/21 02:48:16;;;;;;;13.68;10.32;;;;;;;;;;4967639;28;20176;-75
2021/07/21 02:50:42;;;;;;;13.25;9.65;;;;;;;;;;4971104;28;20219;-75
2021/07/21 02:53:11;;;;;;;18.00;11.35;;;;;;;;;;4951318;28;20721;-75
2021/07/21 02:55:42;;;;;;;13.40;9.98;;;;;;;;;;4955774;28;20192;-75
2021/07/21 02:58:19;;;;;;;15.10;10.27;;;;;;;;;;4969324;28;20184;-75
2021/07/21 03:00:45;;;;;;;14.23;10.20;;;;;;;;;;4967803;28;20183;-75
2021/07/21 03:03:10;;;;;;;13.82;9.75;;;;;;;;;;4966599;28;20195;-73
2021/07/21 03:05:36;;;;;;;11.80;9.20;;;;;;;;;;4961878;28;20231;-75
2021/07/21 03:08:02;;;;;;;13.00;9.32;;;;;;;;;;4955428;28;20185;-75
2021/07/21 03:10:28;;;;;;;14.82;10.13;;;;;;;;;;4948023;28;20643;-76
2021/07/21 03:13:04;;;;;;;14.30;10.07;;;;;;;;;;4971560;28;20219;-75
2021/07/21 03:15:31;;;;;;;17.83;10.90;;;;;;;;;;4960834;28;20188;-75
2021/07/21 03:17:57;;;;;;;15.05;9.95;;;;;;;;;;4968778;28;20188;-75
2021/07/21 03:20:22;;;;;;;14.23;10.23;;;;;;;;;;4966364;28;20237;-75
2021/07/21 03:22:48;;;;;;;17.23;10.07;;;;;;;;;;4969881;28;20228;-75
2021/07/21 03:25:14;;;;;;;15.32;10.20;;;;;;;;;;4968423;28;20283;-75
2021/07/21 03:27:39;;;;;;;16.88;10.80;;;;;;;;;;4954483;28;20223;-74
2021/07/21 03:30:07;;;;;;;16.45;10.82;;;;;;;;;;4972273;28;20180;-75
2021/07/21 03:32:32;;;;;;;12.32;9.18;;;;;;;;;;4972247;28;20251;-75
2021/07/21 03:34:57;;;;;;;14.32;10.80;;;;;;;;;;4946809;28;20193;-75
2021/07/21 03:37:25;;;;;;;13.32;9.90;;;;;;;;;;4967813;28;20207;-75
2021/07/21 03:39:59;;;;;;;14.95;10.88;;;;;;;;;;4969992;28;20184;-75
2021/07/21 03:42:26;;;;;;;12.80;9.30;;;;;;;;;;4964891;28;20215;-75
2021/07/21 03:44:53;;;;;;;15.50;11.60;;;;;;;;;;4969490;28;20212;-76
2021/07/21 03:47:19;;;;;;;17.27;11.05;;;;;;;;;;4970190;28;20176;-75
2021/07/21 03:49:44;;;;;;;16.08;9.55;;;;;;;;;;4953729;28;20192;-75
2021/07/21 03:52:11;;;;;;;17.08;10.93;;;;;;;;;;4970766;28;20187;-75
2021/07/21 03:54:36;;;;;;;12.18;9.98;;;;;;;;;;4965560;28;20188;-76
2021/07/21 03:57:02;;;;;;;14.52;9.95;;;;;;;;;;4970727;28;20191;-75
2021/07/21 03:59:27;;;;;;;16.70;11.07;;;;;;;;;;4952334;28;20320;-75
2021/07/21 04:01:55;;;;;;;16.15;10.73;;;;;;;;;;4970749;28;20682;-75
2021/07/21 04:04:21;;;;;;;19.63;10.88;;;;;;;;;;4967999;28;20696;-75
2021/07/21 04:06:46;;;;;;;14.88;9.45;;;;;;;;;;4965117;28;20221;-75
2021/07/21 04:09:14;;;;;;;15.20;10.43;;;;;;;;;;4971657;28;20331;-75
2021/07/21 04:11:42;;;;;;;13.80;10.07;;;;;;;;;;4967445;28;20176;-75
2021/07/21 04:14:10;;;;;;;18.98;11.57;;;;;;;;;;4967854;28;20209;-75
2021/07/21 04:16:35;;;;;;;21.48;12.65;;;;;;;;;;4948484;28;20263;-75
2021/07/21 04:19:01;;;;;;;15.07;11.35;;;;;;;;;;4970389;28;20188;-74
2021/07/21 04:21:26;;;;;;;15.25;10.68;;;;;;;;;;4966976;28;20180;-75
2021/07/21 04:23:51;;;;;;;16.50;12.00;;;;;;;;;;4964219;28;20234;-74
2021/07/21 04:26:17;;;;;;;16.10;10.90;;;;;;;;;;4965202;28;20234;-75
2021/07/21 04:28:42;;;;;;;15.02;10.38;;;;;;;;;;4959734;28;20632;-76
2021/07/21 04:31:07;;;;;;;17.10;10.70;;;;;;;;;;4969644;28;20687;-75
2021/07/21 04:33:33;;;;;;;15.93;10.88;;;;;;;;;;4971131;28;20571;-75
2021/07/21 04:35:59;;;;;;;14.88;10.60;;;;;;;;;;4971253;28;20645;-74
2021/07/21 04:38:24;;;;;;;17.75;10.77;;;;;;;;;;4942175;28;20188;-75
2021/07/21 04:40:50;;;;;;;16.05;10.18;;;;;;;;;;4967037;28;20180;-76
2021/07/21 04:43:16;;;;;;;13.23;10.68;;;;;;;;;;4964669;28;20207;-75
2021/07/21 04:45:43;;;;;;;18.50;12.30;;;;;;;;;;4949950;28;20200;-75
2021/07/21 04:48:11;;;;;;;13.13;10.65;;;;;;;;;;4971821;28;20199;-76
2021/07/21 04:50:36;;;;;;;15.93;12.20;;;;;;;;;;4953398;28;20191;-75
2021/07/21 04:53:01;;;;;;;14.02;11.00;;;;;;;;;;4970393;28;20196;-75
2021/07/21 04:55:27;;;;;;;16.75;11.63;;;;;;;;;;4970586;28;20180;-74
2021/07/21 04:57:52;;;;;;;17.27;11.95;;;;;;;;;;4972136;28;20199;-76
2021/07/21 05:00:17;;;;;;;15.80;10.87;;;;;;;;;;4971473;28;20220;-76
2021/07/21 05:02:42;;;;;;;13.70;10.35;;;;;;;;;;4967115;28;20462;-76
2021/07/21 05:05:08;;;;;;;16.42;11.40;;;;;;;;;;4968920;28;20211;-75
2021/07/21 05:07:33;;;;;;;14.63;12.45;;;;;;;;;;4965661;28;20532;-75
2021/07/21 05:09:59;;;;;;;18.50;12.30;;;;;;;;;;4968251;28;20563;-75
2021/07/21 05:12:24;;;;;;;18.40;13.70;;;;;;;;;;4972469;28;20275;-75
2021/07/21 05:14:49;;;;;;;16.90;12.98;;;;;;;;;;4975056;28;20265;-76
2021/07/21 05:17:14;;;;;;;15.17;12.27;;;;;;;;;;4974391;28;20676;-75
2021/07/21 05:19:39;;;;;;;13.63;11.57;;;;;;;;;;4966502;28;20425;-75
2021/07/21 05:22:04;;;;;;;19.57;13.43;;;;;;;;;;4955632;28;20967;-75
2021/07/21 05:24:30;;;;;;;16.23;12.63;;;;;;;;;;4975269;28;20446;-75
2021/07/21 05:26:55;;;;;;;17.07;12.83;;;;;;;;;;4975440;28;20664;-75
2021/07/21 05:29:20;;;;;;;14.25;11.98;;;;;;;;;;4978422;28;20480;-77
2021/07/21 05:31:45;;;;;;;13.63;10.40;;;;;;;;;;4976609;28;20725;-74
2021/07/21 05:34:10;;;;;;;16.35;11.82;;;;;;;;;;4979236;28;20477;-75
2021/07/21 05:36:37;;;;;;;16.00;11.40;;;;;;;;;;4967352;28;20245;-74
2021/07/21 05:39:04;;;;;;;16.70;12.50;;;;;;;;;;4959970;28;20426;-75
2021/07/21 05:41:29;;;;;;;15.00;10.65;;;;;;;;;;4969661;28;20272;-74
2021/07/21 05:43:54;;;;;;;17.67;11.55;;;;;;;;;;4977578;28;20709;-74
2021/07/21 05:46:19;;;;;;;13.50;11.32;;;;;;;;;;4973321;28;20215;-75
2021/07/21 05:48:44;;;;;;;13.03;10.63;;;;;;;;;;4978347;28;20172;-75
2021/07/21 05:51:10;;;;;;;13.73;11.90;;;;;;;;;;4975300;28;20792;-75
2021/07/21 05:53:35;;;;;;;14.70;11.57;;;;;;;;;;4975209;28;20441;-73
2021/07/21 05:56:00;;;;;;;13.57;11.00;;;;;;;;;;4971992;28;20176;-74
2021/07/21 05:58:25;;;;;;;13.63;11.30;;;;;;;;;;4977367;28;20512;-75
2021/07/21 06:00:50;;;;;;;14.33;12.83;;;;;;;;;;4968490;28;20184;-75
2021/07/21 06:03:18;;;;;;;15.32;11.82;;;;;;;;;;4975880;28;20449;-75
2021/07/21 06:05:43;;;;;;;17.48;11.48;;;;;;;;;;4973269;28;20196;-73
2021/07/21 06:08:09;;;;;;;15.85;11.93;;;;;;;;;;4971842;28;20176;-75
2021/07/21 06:10:34;;;;;;;14.88;11.38;;;;;;;;;;4975133;28;20199;-74
2021/07/21 06:12:59;;;;;;;17.17;12.45;;;;;;;;;;4973928;28;20246;-75
2021/07/21 06:15:27;;;;;;;14.75;11.52;;;;;;;;;;4980755;28;20184;-75
2021/07/21 06:17:53;;;;;;;16.55;12.45;;;;;;;;;;4966402;28;20188;-75
2021/07/21 06:20:18;;;;;;;17.20;12.30;;;;;;;;;;4971255;28;20299;-75
2021/07/21 06:22:43;;;;;;;17.48;13.02;;;;;;;;;;4970171;28;20584;-75
2021/07/21 06:25:09;;;;;;;17.63;13.07;;;;;;;;;;4957994;28;20208;-74
2021/07/21 06:27:34;;;;;;;20.83;13.25;;;;;;;;;;4973055;28;20243;-75
2021/07/21 06:29:59;;;;;;;19.48;12.27;;;;;;;;;;4970663;28;20649;-75
2021/07/21 06:32:25;;;;;;;15.10;12.55;;;;;;;;;;4952788;28;20291;-75
2021/07/21 06:34:50;;;;;;;16.27;11.93;;;;;;;;;;4948330;29;20181;-74
2021/07/21 06:37:15;;;;;;;13.53;11.27;;;;;;;;;;4967497;28;20184;-77
2021/07/21 06:39:40;;;;;;;15.13;11.97;;;;;;;;;;4973091;28;20437;-75
2021/07/21 06:42:05;;;;;;;15.38;12.57;;;;;;;;;;4971264;28;20422;-75
2021/07/21 06:44:30;;;;;;;19.65;11.60;;;;;;;;;;4971940;28;20669;-75
2021/07/21 06:46:56;;;;;;;16.05;10.70;;;;;;;;;;4971629;28;20194;-74
2021/07/21 06:49:21;;;;;;;12.97;10.87;;;;;;;;;;4973394;28;20176;-75
2021/07/21 06:51:46;;;;;;;14.97;10.83;;;;;;;;;;4986240;28;20423;-74
2021/07/21 06:54:11;;;;;;;12.93;9.82;;;;;;;;;;4973279;28;20449;-75
2021/07/21 06:56:36;;;;;;;16.87;9.77;;;;;;;;;;4973396;28;20199;-75
2021/07/21 06:59:02;;;;;;;15.17;9.93;;;;;;;;;;4972224;28;20422;-75
2021/07/21 07:01:27;;;;;;;12.13;9.52;;;;;;;;;;4970719;28;20939;-75
2021/07/21 07:03:52;;;;;;;12.37;8.37;;;;;;;;;;4956621;28;20262;-74
2021/07/21 07:06:17;;;;;;;14.33;8.87;;;;;;;;;;4956033;28;20462;-74
2021/07/21 07:08:42;;;;;;;13.00;8.88;;;;;;;;;;4968097;28;20512;-75
2021/07/21 07:11:09;;;;;;;13.75;8.57;;;;;;;;;;4970970;28;20180;-75
2021/07/21 07:13:34;;;;;;;13.50;8.88;;;;;;;;;;4967487;28;20258;-74
2021/07/21 07:16:00;;;;;;;10.07;8.43;;;;;;;;;;4970893;28;20655;-74
2021/07/21 07:18:26;;;;;;;11.07;8.70;;;;;;;;;;4955780;28;20433;-74
2021/07/21 07:20:52;;;;;;;12.73;8.40;;;;;;;;;;4969969;28;20188;-75
2021/07/21 07:23:17;;;;;;;13.60;9.30;;;;;;;;;;4971209;28;20242;-75
2021/07/21 07:25:42;;;;;;;9.37;8.33;;;;;;;;;;4972072;28;20678;-75
2021/07/21 07:28:08;;;;;;;10.70;7.70;;;;;;;;;;4972070;28;20441;-76
2021/07/21 07:30:33;;;;;;;9.82;7.63;;;;;;;;;;4968114;28;20196;-74
2021/07/21 07:32:59;;;;;;;8.98;7.35;;;;;;;;;;4954118;28;20195;-74
2021/07/21 07:35:24;;;;;;;8.95;6.82;;;;;;;;;;4971538;28;20196;-74
2021/07/21 07:37:49;;;;;;;10.13;6.67;;;;;;;;;;4968594;28;20280;-74
2021/07/21 07:40:14;;;;;;;8.80;7.57;;;;;;;;;;4970688;28;20426;-76
2021/07/21 07:42:40;;;;;;;9.80;7.82;;;;;;;;;;4971161;28;20207;-75
2021/07/21 07:45:06;;;;;;;9.82;7.32;;;;;;;;;;4972167;28;20196;-75
2021/07/21 07:47:32;;;;;;;10.07;7.40;;;;;;;;;;4971529;28;20555;-74
2021/07/21 07:49:58;;;;;;;8.02;6.25;;;;;;;;;;4963371;28;20177;-74
2021/07/21 07:52:23;;;;;;;7.88;5.80;;;;;;;;;;4971376;28;20290;-74
2021/07/21 07:54:49;;;;;;;8.77;5.80;;;;;;;;;;4965459;28;20650;-74
2021/07/21 07:57:14;;;;;;;6.82;6.07;;;;;;;;;;4967745;28;20430;-75
2021/07/21 07:59:39;;;;;;;6.47;5.47;;;;;;;;;;4972167;28;20188;-74
2021/07/21 08:02:04;;;;;;;7.07;5.78;;;;;;;;;;4971100;28;20426;-74
2021/07/21 08:04:30;;;;;;;8.30;6.28;;;;;;;;;;4973387;28;20192;-75
2021/07/21 08:06:55;;;;;;;8.00;5.85;;;;;;;;;;4971764;28;20176;-74
2021/07/21 08:09:20;;;;;;;8.82;6.70;;;;;;;;;;4970064;28;20188;-74
2021/07/21 08:11:48;;;;;;;11.93;7.13;;;;;;;;;;4965857;28;20212;-73
2021/07/21 08:14:14;;;;;;;7.30;5.68;;;;;;;;;;4970022;28;20700;-74
2021/07/21 08:16:39;;;;;;;7.88;5.53;;;;;;;;;;4972458;28;20184;-75
2021/07/21 08:19:05;;;;;;;7.53;5.03;;;;;;;;;;4969480;28;20184;-74
2021/07/21 08:21:30;;;;;;;6.82;5.10;;;;;;;;;;4972230;28;20188;-74
2021/07/21 08:23:56;;;;;;;5.00;4.00;;;;;;;;;;4969024;28;20232;-74
2021/07/21 08:26:21;;;;;;;6.57;4.23;;;;;;;;;;4970791;28;20208;-74
2021/07/21 08:28:46;;;;;;;5.13;4.27;;;;;;;;;;4962031;28;20578;-74
2021/07/21 08:31:11;;;;;;;5.70;5.10;;;;;;;;;;4970281;28;20184;-74
2021/07/21 08:33:36;;;;;;;6.90;5.37;;;;;;;;;;4953541;28;20296;-74
2021/07/21 08:36:01;;;;;;;9.27;6.13;;;;;;;;;;4962266;28;20426;-74
2021/07/21 08:38:27;;;;;;;7.60;5.77;;;;;;;;;;4967783;28;20188;-74
2021/07/21 08:40:53;;;;;;;6.28;5.25;;;;;;;;;;4966201;28;20562;-75
2021/07/21 08:43:19;;;;;;;6.25;4.75;;;;;;;;;;4970324;28;20232;-75
2021/07/21 08:45:44;;;;;;;7.65;5.60;;;;;;;;;;4970549;28;20236;-75
2021/07/21 08:48:11;;;;;;;8.27;6.37;;;;;;;;;;4968109;28;20637;-75
2021/07/21 08:50:36;;;;;;;7.53;5.72;;;;;;;;;;4948648;28;20441;-75
2021/07/21 08:53:02;;;;;;;8.43;5.10;;;;;;;;;;4963505;28;20204;-74
2021/07/21 08:55:29;;;;;;;8.95;4.97;;;;;;;;;;4961284;28;20180;-74
2021/07/21 08:57:55;;;;;;;5.97;5.03;;;;;;;;;;4964205;28;20180;-75
2021/07/21 09:00:20;;;;;;;6.67;5.10;;;;;;;;;;4951718;28;20191;-75
2021/07/21 09:02:45;;;;;;;7.72;5.93;;;;;;;;;;4951548;28;20613;-74
2021/07/21 09:05:12;;;;;;;8.75;6.05;;;;;;;;;;4952665;28;20203;-74
2021/07/21 09:07:38;;;;;;;7.72;6.28;;;;;;;;;;4968273;28;20270;-74
2021/07/21 09:10:08;;;;;;;7.85;5.47;;;;;;;;;;4946019;28;20181;-74
2021/07/21 09:12:36;;;;;;;7.70;5.57;;;;;;;;;;4964372;28;20690;-74
2021/07/21 09:15:01;;;;;;;9.32;6.18;;;;;;;;;;4965451;28;20239;-75
2021/07/21 09:17:27;;;;;;;7.17;5.30;;;;;;;;;;4969996;28;20180;-73
2021/07/21 09:19:52;;;;;;;6.45;5.10;;;;;;;;;;4964762;28;20437;-76
2021/07/21 09:22:18;;;;;;;7.68;6.15;;;;;;;;;;4958641;28;20172;-75
2021/07/21 09:24:44;;;;;;;9.40;7.17;;;;;;;;;;4969346;28;20235;-74
2021/07/21 09:27:09;;;;;;;8.60;5.93;;;;;;;;;;4970850;28;20402;-74
2021/07/21 09:29:34;;;;;;;6.72;5.97;;;;;;;;;;4970034;28;20231;-75
2021/07/21 09:32:00;;;;;;;7.28;5.80;;;;;;;;;;4971919;28;21057;-74
2021/07/21 09:34:26;;;;;;;9.88;6.75;;;;;;;;;;4969634;28;20227;-74
2021/07/21 09:37:02;;;;;;;7.10;5.95;;;;;;;;;;4961033;28;20654;-74
2021/07/21 09:39:31;;;;;;;6.85;5.45;;;;;;;;;;4965323;28;20688;-74
2021/07/21 09:41:56;;;;;;;8.35;6.88;;;;;;;;;;4970612;28;20192;-74
2021/07/21 09:44:35;;;;;;;7.43;6.68;;;;;;;;;;4969864;28;20202;-75
2021/07/21 09:47:07;;;;;;;9.13;6.65;;;;;;;;;;4950198;28;20543;-75
2021/07/21 09:49:33;;;;;;;8.82;7.60;;;;;;;;;;4964073;28;20195;-74
2021/07/21 09:52:11;;;;;;;9.00;7.17;;;;;;;;;;4966136;28;20184;-74
2021/07/21 09:54:37;;;;;;;8.02;6.35;;;;;;;;;;4958713;28;20187;-75
2021/07/21 09:57:10;;;;;;;7.93;6.67;;;;;;;;;;4973430;28;20180;-75
2021/07/21 09:59:35;;;;;;;8.45;7.32;;;;;;;;;;4968003;28;20279;-74
2021/07/21 10:02:16;;;;;;;9.10;7.50;;;;;;;;;;4970545;28;20296;-75
2021/07/21 10:04:45;;;;;;;9.10;7.93;;;;;;;;;;4967925;28;20191;-74
2021/07/21 10:10:16;;;;;;;7.72;6.93;;;;;;;;;;4926152;29;20225;-74
2021/07/21 10:12:41;;;;;;;12.13;7.72;;;;;;;;;;4933122;29;20750;-73
2021/07/21 10:15:07;;;;;;;9.13;7.13;;;;;;;;;;4947707;28;20201;-74
2021/07/21 10:17:32;;;;;;;9.48;6.95;;;;;;;;;;4970258;28;20224;-74
2021/07/21 10:19:57;;;;;;;9.60;6.82;;;;;;;;;;4953812;28;20230;-73
2021/07/21 10:22:23;;;;;;;8.88;7.97;;;;;;;;;;4970894;28;20522;-75
2021/07/21 10:24:48;;;;;;;9.45;7.28;;;;;;;;;;4965067;28;20191;-74
2021/07/21 10:27:15;;;;;;;9.67;7.47;;;;;;;;;;4966250;28;20654;-75
2021/07/21 10:29:42;;;;;;;8.82;7.20;;;;;;;;;;4972144;28;20461;-75
2021/07/21 10:32:07;;;;;;;7.90;6.90;;;;;;;;;;4971315;28;20545;-73
2021/07/21 10:34:33;;;;;;;9.27;6.88;;;;;;;;;;4964902;28;20176;-74
2021/07/21 10:36:58;;;;;;;9.30;7.65;;;;;;;;;;4969762;28;20207;-75
2021/07/21 10:39:28;;;;;;;11.38;7.13;;;;;;;;;;4967084;28;20265;-74
2021/07/21 10:41:54;;;;;;;7.40;5.95;;;;;;;;;;4970193;28;20259;-74
2021/07/21 10:44:19;;;;;;;9.38;7.40;;;;;;;;;;4969641;28;20199;-74
2021/07/21 10:46:46;;;;;;;10.50;7.60;;;;;;;;;;4950080;28;20204;-76
2021/07/21 10:49:16;;;;;;;10.60;7.57;;;;;;;;;;4952323;28;20207;-75
2021/07/21 10:52:39;;;;;;;8.60;6.80;;;;;;;;;;4969898;28;20203;-76
2021/07/21 11:00:03;;;;;;;10.23;7.95;;;;;;;;;;4961640;28;20715;-75
2021/07/21 11:02:30;;;;;;;11.52;7.85;;;;;;;;;;4971421;28;20212;-75
2021/07/21 11:04:55;;;;;;;9.43;7.20;;;;;;;;;;4967751;28;20223;-74
2021/07/21 11:07:40;;;;;;;8.43;6.90;;;;;;;;;;4965325;28;20561;-76
2021/07/21 11:10:06;;;;;;;10.25;8.02;;;;;;;;;;4950763;28;20181;-75
2021/07/21 11:12:33;;;;;;;8.77;7.22;;;;;;;;;;4953914;28;20580;-75
2021/07/21 11:14:58;;;;;;;9.35;6.72;;;;;;;;;;4958380;28;20651;-75
2021/07/21 11:17:23;;;;;;;8.90;6.47;;;;;;;;;;4965401;28;20190;-75
2021/07/21 11:19:49;;;;;;;9.00;6.53;;;;;;;;;;4971030;28;20184;-75
2021/07/21 11:22:20;;;;;;;8.32;6.68;;;;;;;;;;4952263;29;20188;-75
2021/07/21 11:25:04;;;;;;;8.35;6.93;;;;;;;;;;4953670;28;20234;-75
2021/07/21 11:27:39;;;;;;;10.85;6.95;;;;;;;;;;4954470;29;20257;-75
2021/07/21 11:30:24;;;;;;;7.65;5.82;;;;;;;;;;4966781;28;20183;-74
2021/07/21 11:32:49;;;;;;;8.05;7.25;;;;;;;;;;4964009;28;20338;-77
2021/07/21 11:35:35;;;;;;;9.13;6.40;;;;;;;;;;4969604;28;20625;-74
2021/07/21 11:38:01;;;;;;;7.90;6.95;;;;;;;;;;4961997;28;20285;-75
2021/07/21 11:40:42;;;;;;;8.17;6.70;;;;;;;;;;4951546;28;20657;-74
2021/07/21 11:43:25;;;;;;;8.48;6.60;;;;;;;;;;4967900;28;20334;-74
2021/07/21 11:45:50;;;;;;;9.70;6.65;;;;;;;;;;4972582;28;20275;-74
2021/07/21 11:48:16;;;;;;;11.20;7.40;;;;;;;;;;4966076;28;20259;-74
2021/07/21 11:50:41;;;;;;;7.88;6.60;;;;;;;;;;4961746;28;20183;-74
2021/07/21 11:53:09;;;;;;;10.73;7.67;;;;;;;;;;4970930;28;20648;-74
2021/07/21 11:55:35;;;;;;;7.85;7.05;;;;;;;;;;4968980;28;20207;-75
2021/07/21 11:58:10;;;;;;;9.05;7.85;;;;;;;;;;4954187;28;20206;-74
2021/07/21 12:00:35;;;;;;;8.15;7.35;;;;;;;;;;4968550;28;20182;-74
2021/07/21 12:03:01;;;;;;;8.40;7.10;;;;;;;;;;4953902;28;20203;-75
2021/07/21 12:05:27;;;;;;;8.27;7.47;;;;;;;;;;4971385;28;20196;-75
2021/07/21 12:07:53;;;;;;;10.40;7.50;;;;;;;;;;4970626;28;20566;-76
2021/07/21 12:10:18;;;;;;;8.18;7.38;;;;;;;;;;4964094;28;20168;-75
2021/07/21 12:12:44;;;;;;;8.60;6.95;;;;;;;;;;4950307;28;20704;-77
2021/07/21 12:15:10;;;;;;;9.10;6.78;;;;;;;;;;4966478;28;20382;-75
2021/07/21 12:17:36;;;;;;;11.13;7.07;;;;;;;;;;4952811;28;20194;-76
2021/07/21 12:20:03;;;;;;;8.85;7.95;;;;;;;;;;4967848;28;20192;-75
2021/07/21 12:22:29;;;;;;;9.05;6.70;;;;;;;;;;4971067;28;20266;-75
2021/07/21 12:24:56;;;;;;;10.10;6.82;;;;;;;;;;4963657;28;20203;-74
2021/07/21 12:27:23;;;;;;;10.52;6.60;;;;;;;;;;4954954;28;20518;-75
2021/07/21 12:29:49;;;;;;;8.52;7.10;;;;;;;;;;4967459;28;20176;-76
2021/07/21 12:32:15;;;;;;;7.70;6.78;;;;;;;;;;4967575;28;20176;-75
2021/07/21 12:34:47;;;;;;;8.80;7.03;;;;;;;;;;4952821;28;20179;-75
2021/07/21 12:37:13;;;;;;;9.05;7.30;;;;;;;;;;4964825;28;20184;-75
2021/07/21 12:39:40;;;;;;;9.27;7.05;;;;;;;;;;4969077;28;20184;-75
2021/07/21 12:42:10;;;;;;;7.60;6.28;;;;;;;;;;4945943;28;20228;-75
2021/07/21 12:44:39;;;;;;;9.25;6.93;;;;;;;;;;4967255;28;20191;-75
2021/07/21 12:47:09;;;;;;;8.10;7.30;;;;;;;;;;4964911;28;20179;-78
2021/07/21 12:49:34;;;;;;;7.90;6.60;;;;;;;;;;4959088;28;20258;-75
2021/07/21 12:52:00;;;;;;;7.00;6.30;;;;;;;;;;4968566;28;20263;-74
2021/07/21 12:54:25;;;;;;;9.57;7.53;;;;;;;;;;4971194;28;20200;-75
2021/07/21 12:56:50;;;;;;;7.65;6.45;;;;;;;;;;4966536;28;20176;-74
2021/07/21 12:59:15;;;;;;;9.40;7.30;;;;;;;;;;4964435;28;20339;-75
2021/07/21 13:01:40;;;;;;;8.23;7.30;;;;;;;;;;4964617;28;20250;-75
2021/07/21 13:04:05;;;;;;;7.90;6.83;;;;;;;;;;4969795;28;20199;-75
2021/07/21 13:06:31;;;;;;;6.40;5.80;;;;;;;;;;4967396;28;20648;-74
2021/07/21 13:08:56;;;;;;;7.55;6.68;;;;;;;;;;4968660;28;20669;-75
2021/07/21 13:11:25;;;;;;;7.45;6.75;;;;;;;;;;4969513;28;20183;-75
2021/07/21 13:13:50;;;;;;;8.15;6.57;;;;;;;;;;4961156;28;20192;-76
2021/07/21 13:16:20;;;;;;;10.05;7.07;;;;;;;;;;4967165;28;20184;-75
2021/07/21 13:18:46;;;;;;;10.07;7.25;;;;;;;;;;4968536;28;20443;-75
2021/07/21 13:21:17;;;;;;;9.52;6.90;;;;;;;;;;4962646;28;20262;-74
2021/07/21 13:23:43;;;;;;;7.30;6.50;;;;;;;;;;4971992;28;20270;-75
2021/07/21 13:26:09;;;;;;;7.85;6.22;;;;;;;;;;4959450;28;20682;-75
2021/07/21 13:28:35;;;;;;;7.30;6.57;;;;;;;;;;4968361;28;20230;-75
2021/07/21 13:31:15;;;;;;;9.27;6.72;;;;;;;;;;4968133;28;20184;-74
2021/07/21 13:33:41;;;;;;;8.23;7.43;;;;;;;;;;4968526;28;20285;-76
2021/07/21 13:36:07;;;;;;;6.80;6.10;;;;;;;;;;4952514;28;20271;-75
2021/07/21 13:38:33;;;;;;;7.95;7.15;;;;;;;;;;4969744;28;20192;-75
2021/07/21 13:41:03;;;;;;;7.90;7.10;;;;;;;;;;4972526;28;20270;-75
2021/07/21 13:43:28;;;;;;;9.27;7.53;;;;;;;;;;4973342;28;20209;-76
2021/07/21 13:45:55;;;;;;;8.55;6.65;;;;;;;;;;4969596;28;20587;-75
2021/07/21 13:48:30;;;;;;;10.20;7.22;;;;;;;;;;4954043;28;20279;-75
2021/07/21 13:51:11;;;;;;;8.38;6.40;;;;;;;;;;4960943;28;20183;-76
2021/07/21 13:53:37;;;;;;;7.25;6.55;;;;;;;;;;4953784;28;20553;-78
2021/07/21 13:56:02;;;;;;;7.32;6.53;;;;;;;;;;4953700;28;20176;-77
2021/07/21 13:58:27;;;;;;;7.85;7.05;;;;;;;;;;4962555;28;20190;-75
2021/07/21 14:00:53;;;;;;;9.20;6.53;;;;;;;;;;4975400;28;20638;-75
2021/07/21 14:03:21;;;;;;;10.23;7.60;;;;;;;;;;4955212;28;20437;-75
2021/07/21 14:05:47;;;;;;;9.25;6.85;;;;;;;;;;4971290;28;20713;-77
2021/07/21 14:08:12;;;;;;;7.90;7.10;;;;;;;;;;4969715;28;20270;-75
2021/07/21 14:10:37;;;;;;;8.00;7.20;;;;;;;;;;4952507;28;20653;-75
2021/07/21 14:13:02;;;;;;;8.33;6.70;;;;;;;;;;4942548;28;20188;-75
2021/07/21 14:15:28;;;;;;;11.47;6.97;;;;;;;;;;4972783;28;20649;-75
2021/07/21 14:17:53;;;;;;;7.33;6.20;;;;;;;;;;4972636;28;20935;-75
2021/07/21 14:20:18;;;;;;;8.40;6.37;;;;;;;;;;4969052;28;20218;-75
2021/07/21 14:22:43;;;;;;;8.97;6.77;;;;;;;;;;4974938;28;20604;-76
2021/07/21 14:25:09;;;;;;;7.20;6.50;;;;;;;;;;4967379;28;20199;-77
2021/07/21 14:27:35;;;;;;;7.50;6.75;;;;;;;;;;4971937;28;20184;-77
2021/07/21 14:30:00;;;;;;;7.70;7.00;;;;;;;;;;4970989;28;20180;-77
2021/07/21 14:32:25;;;;;;;9.67;7.67;;;;;;;;;;4974181;28;20472;-77
2021/07/21 14:34:50;;;;;;;8.30;7.47;;;;;;;;;;4971172;28;20429;-77
2021/07/21 14:37:15;;;;;;;9.90;7.10;;;;;;;;;;4964629;28;20267;-74
2021/07/21 14:39:41;;;;;;;7.40;6.70;;;;;;;;;;4954003;28;20181;-78
2021/07/21 14:42:06;;;;;;;9.80;6.57;;;;;;;;;;4965880;28;20218;-75